Latest Coastal Weather Observations for Ceduna

IDS60701

Issued at 7:31 pm CDT Tuesday 24 January 2017 (issued every 10 minutes, with the page automatically refreshed every 10 minutes)

About coastal observations | Map of coastal stations | Coastal observations for SA | Marine services | Other Formats
Station Details ID: 018012 Name: CEDUNA AMO Lat: -32.13 Lon: 133.70 Height: 15.3 m
Data from the previous 72 hours. | See also: Recent months at Ceduna
Date/Time
CDT
Temp
°C
Wind Pressure Rain since
9am
mm
Weather Cloud Vis
km
Sea
Height
m
Swell
Dir  Spd
kts
Gust
kts
hPa Trend Height
m
Period
s
Dir
24/07:30pm 20.1 S 20 28 1018.1 - 0.2 - - 10 - - - -
24/07:00pm 20.3 S 20 28 1017.8 - 0.2 - - 10 - - - -
24/06:30pm 20.9 S 21 27 1017.7 - 0.2 - - 10 - - - -
24/06:00pm 21.2 S 22 28 1017.6 F 0.2 - - 10 - - - -
24/05:30pm 21.2 S 21 28 1017.5 - 0.2 - - 10 - - - -
24/05:00pm 21.6 S 21 27 1017.7 - 0.2 - - 10 - - - -
24/04:30pm 22.0 S 19 25 1017.8 - 0.2 - - 10 - - - -
24/04:00pm 22.2 S 20 26 1017.9 - 0.2 - - 10 - - - -
24/03:30pm 22.4 S 19 25 1018.0 - 0.2 - - 10 - - - -
24/03:00pm 22.7 S 18 22 1018.3 R 0.2 Recent precip. - 10 - - - -
24/02:30pm 22.6 S 18 24 1018.4 - 0.0 - - 10 - - - -
24/02:00pm 22.2 S 18 25 1018.4 - 0.0 - - 10 - - - -
24/01:30pm 22.0 S 18 23 1018.6 - 0.0 - - 10 - - - -
24/01:00pm 22.3 S 17 20 1018.8 - 0.0 - - 10 - - - -
24/12:30pm 22.2 S 15 20 1018.8 - 0.0 - - 10 - - - -
24/12:00pm 21.7 S 15 21 1019.0 R 0.0 - Partly cloudy 10 - - - -
24/11:30am 20.7 S 14 19 1019.0 - 0.0 - Cloudy 10 - - - -
24/11:00am 20.6 S 14 20 1019.0 - 0.0 - Partly cloudy 10 - - - -
24/10:30am 20.6 SSE 13 17 1018.8 - 0.0 - Cloudy 10 - - - -
24/10:00am 20.3 SSE 14 19 1018.6 - 0.0 - Partly cloudy 10 - - - -
24/09:30am 20.6 SSE 15 20 1018.3 - 0.0 - Partly cloudy - - - - -
24/09:00am 19.6 SSE 14 19 1018.2 R 3.4 - Mostly cloudy 10 - - - -
24/08:30am 19.2 SSE 16 20 1017.9 - 3.4 - Partly cloudy 10 - - - -
24/08:00am 18.7 SSE 13 18 1017.4 - 3.4 - Partly cloudy 10 - - - -
24/07:30am 18.2 SSE 13 17 1017.0 - 3.4 - Partly cloudy 10 - - - -
24/07:00am 18.1 SSE 12 18 1016.4 - 3.4 - Partly cloudy 10 - - - -
24/06:30am 18.5 SSE 13 17 1016.0 - 3.4 - Partly cloudy 10 - - - -
24/06:00am 18.5 S 13 19 1015.5 R 3.4 - Cloudy 10 - - - -
24/05:30am 18.4 S 13 18 1015.1 - 3.4 - Partly cloudy 10 - - - -
24/05:00am 18.7 S 15 20 1014.7 - 3.4 - Partly cloudy 10 - - - -
24/04:30am 18.8 S 15 20 1014.7 - 3.4 - Partly cloudy 10 - - - -
24/04:00am 19.0 S 16 20 1014.3 - 3.4 - Partly cloudy 10 - - - -
24/03:30am 19.5 S 13 18 1014.2 - 3.4 - Partly cloudy 10 - - - -
24/03:00am 19.2 S 12 17 1014.4 R 3.4 - - 10 - - - -
24/02:30am 19.4 S 12 16 1014.6 - 3.4 - Partly cloudy 10 - - - -
24/02:00am 19.5 S 12 15 1014.7 - 3.4 - Partly cloudy 10 - - - -
24/01:30am 19.6 S 11 14 1014.4 - 3.4 - Partly cloudy 10 - - - -
24/01:00am 20.0 SSW 13 18 1014.2 - 3.4 - Partly cloudy 10 - - - -
24/12:30am 20.2 SSW 14 19 1014.3 - 3.4 - Partly cloudy 10 - - - -
24/12:17am 20.2 SSW 13 18 1014.1 - 3.4 - Partly cloudy 10 - - - -
24/12:00am 20.4 S 12 18 1013.9 R 3.4 - Cloudy 10 - - - -
 
Date/Time
CDT
Temp
°C
Wind Pressure Rain since
9am
mm
Weather Cloud Vis
km
Sea
Height
m
Swell
Dir  Spd
kts
Gust
kts
hPa Trend Height
m
Period
s
Dir
23/11:30pm 20.4 S 13 16 1013.8 - 3.4 - Partly cloudy 10 - - - -
23/11:23pm 20.5 SSW 12 16 1013.8 - 3.4 - Partly cloudy 10 - - - -
23/11:00pm 20.9 S 11 15 1013.6 - 3.4 - Partly cloudy 10 - - - -
23/10:30pm 21.1 S 11 17 1013.4 - 3.4 - Partly cloudy 10 - - - -
23/10:06pm 21.0 S 12 17 1012.9 - 3.4 - Partly cloudy 10 - - - -
23/10:00pm 21.0 S 14 20 1012.7 - 3.4 - Partly cloudy 10 - - - -
23/09:30pm 21.3 SSW 13 18 1012.3 - 3.4 - Partly cloudy 10 - - - -
23/09:00pm 21.2 SSW 17 23 1011.1 R 3.4 - Cloudy 10 - - - -
23/08:30pm 21.3 SSW 14 19 1010.3 - 3.4 - Partly cloudy 10 - - - -
23/08:00pm 21.3 SSW 16 21 1009.8 - 3.4 - Partly cloudy 10 - - - -
23/07:30pm 21.6 SSW 13 17 1009.5 - 3.4 - Cloudy 10 - - - -
23/07:00pm 21.9 SSW 14 18 1008.8 - 3.4 - Cloudy 10 - - - -
23/06:30pm 22.2 SSW 15 19 1007.4 - 3.4 - Cloudy 10 - - - -
23/06:00pm 22.0 SSW 18 23 1006.7 R 3.4 - Cloudy 10 - - - -
23/05:30pm 22.2 SW 15 19 1006.7 - 3.4 - Cloudy 10 - - - -
23/05:00pm 22.5 SW 15 20 1006.5 - 3.4 - Cloudy 10 - - - -
23/04:30pm 23.7 SW 17 21 1006.6 - 3.4 - Partly cloudy 10 - - - -
23/04:00pm 26.2 SW 12 16 1005.9 - 3.4 - Partly cloudy 10 - - - -
23/03:30pm 27.1 SSW 11 15 1006.2 - 3.4 - Partly cloudy 10 - - - -
23/03:00pm 28.0 SSW 14 19 1005.6 R 3.4 - Partly cloudy 10 - - - -
23/02:30pm 28.9 SSW 13 16 1005.6 - 3.4 - Partly cloudy - - - - -
23/02:00pm 29.8 S 10 14 1005.8 - 3.4 - Partly cloudy 10 - - - -
23/01:30pm 27.8 S 10 13 1005.9 - 3.4 - Partly cloudy 10 - - - -
23/01:27pm 27.6 S 9 13 1005.9 - 3.4 - Partly cloudy 10 - - - -
23/01:09pm 26.5 SSW 12 16 1005.8 - 2.8 - Partly cloudy 5 - - - -
23/01:00pm 30.0 SSW 12 14 1005.6 - 0.2 - Partly cloudy 10 - - - -
23/12:30pm 30.5 SSE 7 10 1004.7 - 0.2 - Partly cloudy - - - - -
23/12:00pm 29.9 SE 5 11 1005.0 R 0.2 Recent precip. Mostly clear - - - - -
23/11:30am 28.1 SSE 8 10 1005.0 - 0.2 - Partly cloudy 10 - - - -
23/11:00am 27.4 S 6 9 1005.2 - 0.0 - Partly cloudy - - - - -
23/10:30am 24.8 SSE 6 8 1005.3 - 0.0 - Partly cloudy 10 - - - -
23/10:00am 23.9 S 3 5 1005.3 - 0.0 - Partly cloudy 10 - - - -
23/09:30am 22.8 SE 4 5 1005.2 - 0.0 - Partly cloudy 10 - - - -
23/09:00am 22.1 SSW 7 9 1004.8 R 0.4 Recent precip. Cloudy 10 - - - -
23/08:30am 22.5 SSE 7 9 1004.3 - 0.0 - Partly cloudy 10 - - - -
23/08:00am 22.4 SSE 7 9 1003.9 - 0.0 - Cloudy 10 - - - -
23/07:30am 22.0 SSE 9 11 1003.5 - 0.0 - Partly cloudy 10 - - - -
23/07:00am 22.2 S 9 12 1003.2 - 0.0 - Partly cloudy 10 - - - -
23/06:30am 22.6 SSW 9 12 1002.8 - 0.0 - Cloudy 10 - - - -
23/06:00am 23.9 W 3 7 1002.5 R 0.0 - Partly cloudy 10 - - - -
23/05:30am 24.0 WNW 2 3 1002.2 - 0.0 - Partly cloudy 10 - - - -
23/05:00am 23.8 WNW 4 6 1002.2 - 0.0 - - 10 - - - -
23/04:30am 24.0 SSW 1 5 1002.2 - 0.0 - Partly cloudy 10 - - - -
23/04:00am 24.0 SSW 3 5 1001.9 - 0.0 - Partly cloudy 10 - - - -
23/03:30am 24.2 SW 7 9 1002.0 - 0.0 - - 10 - - - -
23/03:00am 24.1 E 4 5 1001.9 F 0.0 - - 10 - - - -
23/02:30am 24.5 E 3 4 1002.3 - 0.0 - - 10 - - - -
23/02:00am 24.4 CALM 0 0 1003.2 - 0.0 - - 10 - - - -
23/01:30am 24.6 ESE 2 4 1003.8 - 0.0 - - 10 - - - -
23/01:00am 24.5 ESE 2 3 1004.4 - 0.0 - - 10 - - - -
23/12:30am 24.5 SSE 3 3 1004.9 - 0.0 - - 10 - - - -
23/12:00am 24.5 SE 4 5 1005.3 F 0.0 - Mostly clear 10 - - - -
 
Date/Time
CDT
Temp
°C
Wind Pressure Rain since
9am
mm
Weather Cloud Vis
km
Sea
Height
m
Swell
Dir  Spd
kts
Gust
kts
hPa Trend Height
m
Period
s
Dir
22/11:30pm 24.2 SSE 5 5 1005.5 - 0.0 - - 10 - - - -
22/11:00pm 24.5 S 4 6 1005.6 - 0.0 - - 10 - - - -
22/10:30pm 25.8 SSE 7 9 1005.5 - 0.0 - - - - - - -
22/10:00pm 26.0 SSE 7 9 1005.4 - 0.0 - Partly cloudy - - - - -
22/09:30pm 26.3 SSE 8 10 1005.0 - 0.0 - - - - - - -
22/09:00pm 27.2 SSE 8 9 1004.8 F 0.0 - - - - - - -
22/08:30pm 28.1 SE 10 12 1004.7 - 0.0 - - - - - - -
22/08:00pm 29.0 SE 13 15 1004.6 - 0.0 - - - - - - -
22/07:30pm 28.2 SSE 10 13 1004.3 - 0.0 - - - - - - -
22/07:00pm 29.3 SSE 12 15 1004.4 - 0.0 - - - - - - -
22/06:30pm 29.9 SSE 14 17 1004.2 - 0.0 - - - - - - -
22/06:00pm 27.7 SSE 13 15 1004.7 F 0.0 - Mostly clear - - - - -
22/05:30pm 27.1 S 13 16 1005.2 - 0.0 - - - - - - -
22/05:00pm 25.5 S 14 17 1005.9 - 0.0 - - - - - - -
22/04:30pm 28.1 S 11 13 1006.2 - 0.0 - Partly cloudy - - - - -
22/04:00pm 30.0 S 10 12 1006.4 - 0.0 - Partly cloudy - - - - -
22/03:30pm 26.5 SSW 11 16 1006.8 - 0.0 - Partly cloudy - - - - -
22/03:00pm 30.0 SSE 7 9 1006.6 R 0.0 - Cloudy - - - - -
22/02:30pm 29.5 SSW 7 9 1006.8 - 0.0 - Partly cloudy - - - - -
22/02:00pm 30.5 S 7 9 1006.8 - 0.0 - Partly cloudy - - - - -
22/01:30pm 28.9 S 7 9 1007.2 - 0.0 - Partly cloudy - - - - -
22/01:00pm 28.2 SSW 9 10 1007.3 - 0.0 - Cloudy - - - - -
22/12:30pm 28.4 SW 8 10 1007.6 - 0.0 - Cloudy - - - - -
22/12:00pm 33.2 NW 7 14 1007.5 F 0.0 - Cloudy - - - - -
22/11:30am 32.6 NW 6 9 1007.8 - 0.0 - Cloudy - - - - -
22/11:00am 30.8 NE 7 11 1008.2 - 0.0 - Cloudy - - - - -
22/10:30am 28.4 NE 8 9 1008.7 - 0.0 - Cloudy - - - - -
22/10:00am 26.8 ENE 5 7 1009.0 - 0.0 - Cloudy - - - - -
22/09:30am 25.6 SE 4 4 1009.2 - 0.0 - Cloudy - - - - -
22/09:00am 24.6 SSE 1 4 1009.1 F 0.0 - Cloudy - - - - -
22/08:30am 23.7 ENE 3 3 1009.1 - 0.0 - Cloudy - - - - -
22/08:00am 23.0 ESE 5 6 1008.8 - 0.0 - Cloudy 10 - - - -
22/07:30am 21.9 SE 4 6 1008.7 - 0.0 - Cloudy 10 - - - -
22/07:00am 21.5 SE 3 4 1008.7 - 0.0 - Cloudy 10 - - - -
22/06:30am 21.2 ESE 5 5 1008.4 - 0.0 - Partly cloudy 10 - - - -
22/06:00am 21.1 ESE 5 6 1008.2 F 0.0 - Cloudy 10 - - - -
22/05:30am 21.1 E 5 6 1008.3 - 0.0 - Partly cloudy 10 - - - -
22/05:00am 20.9 ESE 4 5 1008.5 - 0.0 - Cloudy 10 - - - -
22/04:30am 20.8 ESE 3 4 1008.7 - 0.0 - Cloudy 10 - - - -
22/04:00am 20.6 SE 3 4 1008.8 - 0.0 - Cloudy 10 - - - -
22/03:30am 20.2 SE 5 5 1008.9 - 0.0 - Partly cloudy 10 - - - -
22/03:00am 19.8 S 4 5 1009.0 F 0.0 - Cloudy 10 - - - -
22/02:30am 19.8 CALM 0 5 1009.3 - 0.0 - - 10 - - - -
22/02:00am 20.0 CALM 0 2 1009.8 - 0.0 - - 10 - - - -
22/01:30am 19.9 WSW 3 4 1009.8 - 0.0 - - 10 - - - -
22/01:00am 20.0 E 6 8 1009.7 - 0.0 - - 10 - - - -
22/12:30am 19.8 ESE 6 7 1010.0 - 0.0 - - 10 - - - -
22/12:00am 20.6 SE 7 9 1010.2 F 0.0 - - 10 - - - -
 
Date/Time
CDT
Temp
°C
Wind Pressure Rain since
9am
mm
Weather Cloud Vis
km
Sea
Height
m
Swell
Dir  Spd
kts
Gust
kts
hPa Trend Height
m
Period
s
Dir
21/11:30pm 21.0 SE 5 8 1010.3 - 0.0 - - 10 - - - -
21/11:00pm 21.2 SE 10 12 1010.3 - 0.0 - Partly cloudy 10 - - - -
21/10:30pm 21.3 SSE 9 12 1010.6 - 0.0 - - 10 - - - -
21/10:00pm 21.7 SSE 12 16 1010.5 - 0.0 - Partly cloudy 10 - - - -
21/09:30pm 22.1 SSE 13 18 1010.6 - 0.0 - Partly cloudy 10 - - - -
21/09:00pm 22.2 SSE 13 17 1010.5 F 0.0 - Cloudy 10 - - - -
21/08:30pm 22.1 SSE 15 19 1010.3 - 0.0 - Cloudy 10 - - - -
21/08:00pm 22.5 SSE 15 19 1010.4 - 0.0 - Cloudy 10 - - - -

Other Formats:

Comma delimited format used in spreadsheet applications
http://www.bom.gov.au/fwo/IDS60701/IDS60701.94653.axf

JavaScript Object Notation format (JSON) in row-major order
http://www.bom.gov.au/fwo/IDS60701/IDS60701.94653.json